AirNav   ProFlight Series 2 Aviation Headset
 
 1643 users online  

9II4 Cruzan Field Airport
Arcadia, Indiana, USA

GOING TO ARCADIA?


FAA INFORMATION EFFECTIVE 16 JULY 2020

Location

FAA Identifier: 9II4
Lat/Long: 40-10-21.0000N 085-56-41.0000W
40-10.350000N 085-56.683333W
40.1725000,-85.9447222
(estimated)
Elevation: 845 ft. / 258 m (estimated)
Variation: 03W (1990)
From city: 4 miles E of ARCADIA, IN
Time zone: UTC -4 (UTC -5 during Standard Time)
Zip code: 46034

Airport Operations

Airport use: Private use. Permission required prior to landing
Activation date: 11/1992
Control tower: no
ARTCC: CHICAGO CENTER
FSS: TERRE HAUTE FLIGHT SERVICE STATION
Attendance: UNATNDD
Wind indicator: yes
Segmented circle: no

Airport Communications

WX AWOS-3 at UMP (15 nm S): 119.375 (317-842-3911)
WX AWOS-3 at AID (16 nm E): 128.55 (765-442-1245)
WX AWOS-3PT at TYQ (16 nm SW): 120.725 (317-769-3154)
WX AWOS-3 at MQJ (20 nm S): 124.175 (317-335-3037)

Nearby radio navigation aids

VOR radial/distance  VOR name  Freq  Var
OKKr171/21.9KOKOMO VORTAC113.5005W
MZZr215/22.8MARION VOR/DME108.6003W
MIEr264/25.5MUNCIE VOR/DME114.4003W
VHPr041/29.0BRICKYARD VORTAC116.3001E
GUSr164/29.9GRISSOM VORTAC108.4502W
SHBr349/32.9SHELBYVILLE VOR/DME112.0001E

 
NDB name  Hdg/Dist  Freq  Var  ID
METROPOLITAN022/14.933803WUMP ..- -- .--.
NEW CASTLE307/33.738506WUWL ..- .-- .-..

Airport Services

Runway Information

Runway 9/27

Dimensions: 3300 x 70 ft. / 1006 x 21 m
Surface: turf
RUNWAY 9  RUNWAY 27
Latitude: 40-10.350000N
Longitude: 085-56.683333W
Elevation: 845.0 ft.
Traffic pattern: leftleft
Displaced threshold: no560 ft.
Obstructions: none35 ft. bldg, 140 ft. from runway

Airport Ownership and Management from official FAA records

Ownership: Privately-owned
Owner: ROBERT E. CRUZAN II
26410 S.R. 213
ARCADIA, IN 46030
Phone 317-439-0800
Manager: ROBERT E. CRUZAN II
26410 S.R. 213
ARCADIA, IN 46030
Phone 317-439-0800

Airport Operational Statistics

Aircraft based on the field: 4
Single engine airplanes: 1
Ultralights: 3
    

Additional Remarks

FOR CD CTC CHICAGO ARTCC AT 630-906-8921.

Instrument Procedures

There are no published instrument procedures at 9II4.

Some nearby airports with instrument procedures:

5I4 - Sheridan Airport (12 nm W)
KUMP - Indianapolis Metropolitan Airport (15 nm S)
KAID - Anderson Municipal Airport-Darlington Field (16 nm E)
KTYQ - Indianapolis Executive Airport (16 nm SW)
KMQJ - Indianapolis Regional Airport (20 nm S)
 
Loc | Ops | Rwys | IFR | FBO | Links
Com | Nav | Svcs | Stats | Notes
Area around 9II4 (Cruzan Field Airport)
 
Road maps at: MapQuest Bing Google
 
Aerial photo
No photo
 
Sectional chart

 
Airport distance calculator
Flying to Cruzan Field Airport? Find the distance to fly.

From to 9II4

Sunrise and sunset
Times for 04-Aug-2020
 Local
(UTC-4)
 Zulu
(UTC)
Morning civil twilight06:1610:16
Sunrise06:4610:46
Sunset20:5300:53
Evening civil twilight21:2301:23

Current date and time
Zulu (UTC)  04-Aug-2020 15:38:02
Local (UTC-4)  04-Aug-2020 11:38:02
 
METAR
KAID 
15nm E 
041315Z AUTO 34003KT 10SM OVC003 18/17 A3000 RMK AO2 T01760168
KTYQ 
16nm SW 
041515Z AUTO 34006KT 10SM BKN021 BKN031 19/16 A3003 RMK AO2 T01870158
KMQJ 
20nm S 
041515Z AUTO 35003KT 10SM BKN020 BKN025 21/19 A3001 RMK AO1
KOKK 
22nm N 
041523Z AUTO 35008KT 10SM SCT023 OVC030 21/17 A3003 RMK AO2
KMZZ 
23nm NE 
041515Z AUTO 00000KT 10SM SCT016 SCT022 BKN035 20/16 A3001 RMK AO2 T01970156
KMIE 
25nm E 
041506Z 33010KT 10SM FEW024 FEW029 22/17 A2999 RMK AO2 T02220167
KEYE 
26nm SW 
041453Z AUTO 34008KT 10SM SCT025 21/15 A3001 RMK AO2 SLP156 T02060150 51007
KFKR 
29nm W 
041515Z AUTO 36008KT 10SM SCT020 BKN027 BKN110 21/15 A3005 RMK AO2 T02050150
KGUS 
29nm N 
041518Z 33011KT 10SM SCT023 BKN033 21/17 A3001 RMK AO2A SLP162 $
TAF
KGUS 
29nm N 
041340Z 0413/0517 35006KT 9999 BKN007 OVC011 QNH2997INS BECMG 0413/0415 34009KT 9999 SCT010 BKN015 QNH2999INS BECMG 0414/0416 34012KT 9999 FEW015 BKN025 QNH3000INS BECMG 0422/0423 33012G18KT 9999 SCT050 QNH3001INS BECMG 0500/0501 33006KT 9999 FEW050 QNH3004INS TX22/0420Z TN15/0503Z
KIND 
31nm SW 
041120Z 0412/0518 35005KT P6SM BKN007 FM041400 35006KT P6SM BKN016 FM041500 35007KT P6SM SCT025 FM041600 35007KT P6SM SCT045 FM050200 35007KT P6SM FEW250
NOTAMs
Click for the latest NOTAMs
NOTAMs are issued by the DoD/FAA and will open in a separate window not controlled by AirNav.

 

 
 

Would you like to see your business listed on this page?

 If your business provides an interesting product or service to pilots, flight crews, aircraft, or users of the Cruzan Field Airport, you should consider listing it here.  To start the listing process, click on the button below
 
Add a business
 

Other Pages about Cruzan Field Airport

Update a link
 
Copyright © AirNav, LLC. All rights reserved. Privacy Policy  Contact